createdAt,value
2018-02-09T00:00:39.895Z,39.07
2018-02-09T00:03:06.499Z,39.20
2018-02-09T00:05:33.100Z,37.70
2018-02-09T00:07:59.703Z,38.57
2018-02-09T00:10:26.299Z,39.80
2018-02-09T00:12:52.923Z,38.50
2018-02-09T00:15:19.519Z,43.10
2018-02-09T00:17:46.119Z,41.13
2018-02-09T00:20:12.727Z,40.97
2018-02-09T00:22:45.123Z,36.93
2018-02-09T00:25:11.733Z,37.30
2018-02-09T00:27:38.331Z,37.47
2018-02-09T00:30:04.972Z,38.77
2018-02-09T00:32:31.575Z,38.40
2018-02-09T00:34:58.179Z,36.90
2018-02-09T00:37:24.784Z,37.00
2018-02-09T00:39:51.388Z,38.17
2018-02-09T00:42:18.000Z,37.67
2018-02-09T00:44:44.608Z,35.80
2018-02-09T00:47:11.244Z,36.20
2018-02-09T00:49:37.836Z,37.30
2018-02-09T00:52:04.436Z,35.47
2018-02-09T00:54:31.039Z,36.30
2018-02-09T00:56:57.683Z,36.10
2018-02-09T00:59:24.287Z,37.23
2018-02-09T01:01:50.886Z,34.40
2018-02-09T01:04:17.514Z,34.40
2018-02-09T01:06:44.108Z,35.47
2018-02-09T01:09:10.723Z,34.80
2018-02-09T01:11:37.327Z,37.03
2018-02-09T01:14:03.930Z,36.83
2018-02-09T01:16:30.555Z,36.50
2018-02-09T01:18:57.165Z,36.77
2018-02-09T01:21:23.775Z,35.60
2018-02-09T01:23:50.376Z,36.20
2018-02-09T01:26:16.977Z,36.90
2018-02-09T01:28:43.578Z,37.33
2018-02-09T01:31:10.188Z,35.27
2018-02-09T01:33:36.790Z,36.03
2018-02-09T01:36:03.399Z,35.70
2018-02-09T01:38:30.039Z,35.23
2018-02-09T01:40:56.639Z,35.00
2018-02-09T01:43:23.235Z,36.40
2018-02-09T01:45:49.843Z,34.73
2018-02-09T01:48:16.452Z,35.10
2018-02-09T01:50:43.055Z,33.90
2018-02-09T01:53:09.655Z,34.80
2018-02-09T01:55:36.272Z,35.83
2018-02-09T01:58:02.867Z,35.53
2018-02-09T02:00:29.463Z,34.60
2018-02-09T02:02:56.077Z,34.90
2018-02-09T02:05:22.675Z,35.50
2018-02-09T02:07:49.288Z,34.30
2018-02-09T02:10:15.908Z,36.17
2018-02-09T02:12:42.523Z,36.40
2018-02-09T02:15:09.120Z,34.97
2018-02-09T02:17:35.724Z,36.60
2018-02-09T02:20:02.328Z,36.30
2018-02-09T02:22:28.925Z,36.30
2018-02-09T02:24:55.535Z,35.43
2018-02-09T02:27:22.127Z,33.60
2018-02-09T02:29:48.743Z,35.93
2018-02-09T02:32:15.347Z,35.40
2018-02-09T02:34:41.943Z,36.80
2018-02-09T02:37:08.549Z,34.90
2018-02-09T02:39:35.143Z,35.03
2018-02-09T02:42:01.776Z,34.93
2018-02-09T02:44:28.376Z,35.80
2018-02-09T02:46:54.984Z,35.30
2018-02-09T02:49:21.584Z,34.70
2018-02-09T02:51:48.191Z,34.77
2018-02-09T02:54:14.812Z,36.23
2018-02-09T02:56:41.407Z,34.10
2018-02-09T02:59:08.011Z,34.93
2018-02-09T03:01:34.613Z,33.77
2018-02-09T03:04:01.217Z,33.23
2018-02-09T03:06:27.836Z,34.57
2018-02-09T03:08:54.435Z,34.23
2018-02-09T03:11:21.032Z,34.57
2018-02-09T03:13:47.647Z,33.50
2018-02-09T03:16:14.252Z,34.00
2018-02-09T03:18:40.856Z,35.43
2018-02-09T03:21:07.463Z,36.17
2018-02-09T03:23:34.073Z,35.77
2018-02-09T03:26:00.673Z,34.70
2018-02-09T03:28:27.271Z,35.33
2018-02-09T03:30:53.905Z,36.17
2018-02-09T03:33:20.487Z,35.03
2018-02-09T03:35:47.087Z,37.00
2018-02-09T03:38:13.686Z,36.10
2018-02-09T03:40:40.308Z,35.67
2018-02-09T03:43:06.904Z,37.10
2018-02-09T03:45:33.512Z,36.47
2018-02-09T03:48:00.116Z,35.77
2018-02-09T03:50:26.711Z,34.43
2018-02-09T03:52:53.323Z,34.70
2018-02-09T03:55:19.919Z,34.43
2018-02-09T03:57:47.536Z,34.73
2018-02-09T04:00:14.131Z,35.60
2018-02-09T04:02:40.743Z,36.00
2018-02-09T04:05:07.347Z,35.73
2018-02-09T04:07:33.951Z,34.70
2018-02-09T04:10:00.551Z,36.10
2018-02-09T04:12:27.158Z,35.97
2018-02-09T04:14:53.767Z,34.90
2018-02-09T04:17:20.383Z,33.00
2018-02-09T04:19:46.979Z,35.23
2018-02-09T04:22:13.576Z,34.50
2018-02-09T04:24:40.183Z,34.20
2018-02-09T04:27:06.797Z,34.03
2018-02-09T04:29:33.396Z,34.60
2018-02-09T04:31:59.996Z,32.43
2018-02-09T04:34:26.599Z,32.57
2018-02-09T04:36:53.217Z,32.07
2018-02-09T04:39:19.839Z,36.93
2018-02-09T04:41:46.533Z,34.10
2018-02-09T04:44:13.132Z,34.50
2018-02-09T04:46:39.731Z,34.27
2018-02-09T04:49:06.332Z,32.83
2018-02-09T04:51:32.948Z,34.10
2018-02-09T04:53:59.550Z,36.13
2018-02-09T04:56:26.170Z,33.53
2018-02-09T04:58:53.755Z,33.33
2018-02-09T05:01:20.363Z,32.83
2018-02-09T05:03:46.963Z,33.60
2018-02-09T05:06:13.572Z,33.23
2018-02-09T05:08:40.175Z,34.53
2018-02-09T05:11:06.779Z,32.73
2018-02-09T05:13:33.395Z,33.87
2018-02-09T05:16:00.044Z,33.73
2018-02-09T05:18:26.627Z,36.27
2018-02-09T05:20:53.239Z,33.80
2018-02-09T05:23:19.850Z,34.43
2018-02-09T05:25:46.459Z,34.40
2018-02-09T05:28:13.059Z,34.00
2018-02-09T05:30:39.659Z,36.70
2018-02-09T05:33:06.263Z,34.87
2018-02-09T05:35:32.856Z,34.30
2018-02-09T05:37:59.471Z,33.03
2018-02-09T05:40:26.064Z,32.43
2018-02-09T05:42:52.675Z,32.70
2018-02-09T05:45:19.280Z,34.70
2018-02-09T05:47:45.884Z,34.37
2018-02-09T05:50:12.485Z,34.13
2018-02-09T05:52:39.090Z,35.13
2018-02-09T05:55:05.693Z,35.97
2018-02-09T05:57:32.300Z,35.13
2018-02-09T05:59:58.903Z,35.80
2018-02-09T06:02:25.503Z,34.57
2018-02-09T06:04:52.112Z,34.40
2018-02-09T06:07:18.715Z,34.30
2018-02-09T06:09:46.319Z,35.73
2018-02-09T06:12:12.927Z,35.33
2018-02-09T06:14:39.526Z,36.00
2018-02-09T06:17:06.128Z,34.20
2018-02-09T06:19:32.743Z,34.37
2018-02-09T06:21:59.337Z,33.80
2018-02-09T06:24:25.935Z,33.50
2018-02-09T06:26:52.547Z,33.07
2018-02-09T06:29:19.139Z,33.80
2018-02-09T06:31:45.748Z,34.17
2018-02-09T06:34:12.356Z,33.77
2018-02-09T06:36:38.951Z,34.23
2018-02-09T06:39:05.551Z,34.40
2018-02-09T06:41:32.151Z,34.37
2018-02-09T06:43:58.763Z,36.53
2018-02-09T06:46:25.363Z,37.13
2018-02-09T06:48:51.988Z,35.33
2018-02-09T06:51:18.597Z,35.10
2018-02-09T06:53:45.184Z,35.20
2018-02-09T06:56:11.787Z,34.23
2018-02-09T06:58:38.391Z,35.57
2018-02-09T07:01:04.995Z,35.37
2018-02-09T07:03:31.600Z,34.30
2018-02-09T07:05:58.206Z,37.47
2018-02-09T07:08:24.807Z,35.87
2018-02-09T07:10:51.410Z,34.23
2018-02-09T07:13:18.027Z,38.73
2018-02-09T07:15:44.635Z,37.30
2018-02-09T07:18:11.236Z,35.40
2018-02-09T07:20:37.835Z,36.83
2018-02-09T07:23:04.431Z,36.57
2018-02-09T07:25:31.034Z,34.60
2018-02-09T07:27:57.636Z,36.27
2018-02-09T07:30:24.243Z,36.23
2018-02-09T07:32:50.876Z,37.20
2018-02-09T07:35:17.446Z,36.00
2018-02-09T07:37:44.058Z,35.97
2018-02-09T07:40:10.655Z,35.60
2018-02-09T07:42:37.264Z,37.00
2018-02-09T07:45:03.868Z,34.57
2018-02-09T07:47:30.483Z,37.17
2018-02-09T07:49:57.088Z,36.27
2018-02-09T07:52:23.695Z,36.93
2018-02-09T07:54:50.300Z,38.90
2018-02-09T07:57:16.920Z,38.77
2018-02-09T07:59:43.524Z,39.40
2018-02-09T08:02:10.149Z,37.67
2018-02-09T08:04:36.753Z,38.10
2018-02-09T08:07:03.351Z,35.83
2018-02-09T08:09:29.960Z,35.13
2018-02-09T08:11:56.595Z,38.80
2018-02-09T08:14:23.189Z,38.77
2018-02-09T08:16:49.782Z,36.93
2018-02-09T08:21:49.623Z,37.63
2018-02-09T08:24:16.219Z,35.70
2018-02-09T08:26:42.819Z,36.17
2018-02-09T08:29:09.428Z,36.33
2018-02-09T08:31:36.020Z,35.30
2018-02-09T08:34:02.636Z,37.97
2018-02-09T08:36:29.247Z,35.87
2018-02-09T08:38:55.851Z,34.50
2018-02-09T08:41:22.451Z,36.90
2018-02-09T08:43:49.053Z,36.10
2018-02-09T08:46:15.739Z,35.13
2018-02-09T08:48:42.351Z,35.80
2018-02-09T08:51:08.951Z,34.90
2018-02-09T08:53:35.560Z,37.73
2018-02-09T08:56:02.156Z,37.20
2018-02-09T08:58:28.776Z,38.50
2018-02-09T09:00:55.387Z,36.87
2018-02-09T09:03:21.979Z,36.63
2018-02-09T09:05:48.591Z,35.50
2018-02-09T09:08:15.199Z,34.70
2018-02-09T09:10:41.791Z,36.20
2018-02-09T09:13:08.399Z,34.80
2018-02-09T09:15:34.994Z,36.70
2018-02-09T09:18:01.603Z,35.70
2018-02-09T09:20:28.207Z,35.40
2018-02-09T09:22:54.831Z,35.10
2018-02-09T09:25:21.443Z,35.80
2018-02-09T09:27:48.041Z,34.20
2018-02-09T09:30:14.988Z,34.00
2018-02-09T09:32:41.579Z,34.63
2018-02-09T09:35:08.188Z,33.33
2018-02-09T09:37:34.843Z,34.57
2018-02-09T09:40:01.444Z,33.80
2018-02-09T09:42:28.040Z,35.83
2018-02-09T09:44:54.647Z,35.13
2018-02-09T09:47:21.244Z,32.47
2018-02-09T09:49:47.859Z,32.20
2018-02-09T09:52:14.524Z,32.73
2018-02-09T09:54:41.127Z,33.00
2018-02-09T09:57:07.735Z,32.93
2018-02-09T09:59:34.331Z,33.57
2018-02-09T10:02:00.947Z,35.20
2018-02-09T10:04:27.545Z,33.43
2018-02-09T10:06:54.151Z,34.27
2018-02-09T10:09:20.759Z,36.70
2018-02-09T10:11:47.372Z,34.73
2018-02-09T10:14:13.972Z,33.47
2018-02-09T10:16:40.630Z,35.80
2018-02-09T10:19:07.206Z,33.20
2018-02-09T10:21:33.799Z,34.50
2018-02-09T10:24:00.404Z,34.30
2018-02-09T10:26:27.002Z,33.57
2018-02-09T10:28:53.608Z,33.70
2018-02-09T10:31:20.231Z,33.73
2018-02-09T10:33:46.879Z,32.47
2018-02-09T10:36:13.480Z,34.10
2018-02-09T10:38:40.084Z,31.70
2018-02-09T10:41:06.683Z,32.17
2018-02-09T10:43:33.284Z,32.23
2018-02-09T10:45:59.888Z,30.73
2018-02-09T10:48:26.491Z,32.97
2018-02-09T10:50:53.112Z,33.33
2018-02-09T10:53:19.711Z,31.47
2018-02-09T10:58:28.897Z,33.70
2018-02-09T11:00:58.487Z,30.37
2018-02-09T11:03:25.087Z,28.87
2018-02-09T11:05:51.719Z,31.37
2018-02-09T11:08:18.312Z,29.83
2018-02-09T11:10:48.862Z,31.03
2018-02-09T11:13:15.473Z,30.30
2018-02-09T11:15:42.063Z,30.27
2018-02-09T11:18:08.675Z,32.90
2018-02-09T11:20:35.267Z,28.73
2018-02-09T11:23:01.879Z,32.17
2018-02-09T11:25:28.475Z,30.90
2018-02-09T11:27:55.092Z,68.67
2018-02-09T11:30:21.691Z,34.10
2018-02-09T11:32:48.311Z,33.77
2018-02-09T11:35:14.943Z,41.47
2018-02-09T11:37:41.561Z,47.50
2018-02-09T11:40:08.190Z,30.43
2018-02-09T11:42:34.763Z,32.37
2018-02-09T11:45:01.373Z,24.00
2018-02-09T11:47:27.970Z,28.73
2018-02-09T11:49:54.637Z,28.50
2018-02-09T11:52:21.219Z,29.43
2018-02-09T11:54:47.832Z,33.57
2018-02-09T11:57:14.431Z,43.43
2018-02-09T11:59:41.051Z,33.33
2018-02-09T12:02:07.651Z,26.37
2018-02-09T12:04:34.270Z,28.57
2018-02-09T12:07:00.871Z,41.60
2018-02-09T12:09:27.468Z,38.87
2018-02-09T12:11:54.077Z,29.83
2018-02-09T12:14:20.692Z,27.60
2018-02-09T12:16:47.315Z,25.97
2018-02-09T12:19:13.923Z,23.00
2018-02-09T12:21:40.548Z,51.63
2018-02-09T12:24:07.143Z,25.93
2018-02-09T12:26:33.740Z,36.73
2018-02-09T12:29:00.357Z,25.87
2018-02-09T12:31:26.954Z,34.50
2018-02-09T12:33:53.559Z,22.63
2018-02-09T12:36:20.167Z,38.80
2018-02-09T12:38:46.772Z,24.70
2018-02-09T12:41:13.373Z,27.07
2018-02-09T12:43:39.999Z,33.40
2018-02-09T12:46:06.601Z,26.03
2018-02-09T12:48:33.207Z,21.20
2018-02-09T12:50:59.816Z,21.00
2018-02-09T12:53:26.420Z,20.10
2018-02-09T12:55:53.028Z,19.40
2018-02-09T12:58:19.627Z,20.60
2018-02-09T13:00:46.240Z,18.10
2018-02-09T13:06:10.287Z,17.77
2018-02-09T13:08:36.884Z,17.30
2018-02-09T13:11:03.484Z,18.30
2018-02-09T13:13:30.084Z,15.40
2018-02-09T13:15:56.711Z,17.60
2018-02-09T13:18:29.372Z,17.37
2018-02-09T13:20:55.968Z,17.00
2018-02-09T13:23:28.409Z,17.13
2018-02-09T13:25:55.008Z,16.50
2018-02-09T13:28:27.508Z,22.83
2018-02-09T13:30:54.119Z,19.17
2018-02-09T13:33:26.471Z,17.43
2018-02-09T13:35:53.064Z,18.07
2018-02-09T13:38:19.688Z,17.30
2018-02-09T13:40:46.292Z,17.23
2018-02-09T13:43:12.890Z,17.00
2018-02-09T13:45:39.504Z,17.30
2018-02-09T13:48:06.103Z,17.87
2018-02-09T13:50:32.708Z,18.00
2018-02-09T13:52:59.316Z,17.30
2018-02-09T13:55:25.939Z,18.07
2018-02-09T13:57:52.553Z,18.43
2018-02-09T14:00:19.155Z,17.90
2018-02-09T14:02:45.769Z,16.53
2018-02-09T14:05:12.368Z,16.60
2018-02-09T14:07:38.987Z,15.43
2018-02-09T14:10:05.579Z,15.63
2018-02-09T14:12:32.191Z,15.80
2018-02-09T14:14:58.791Z,15.37
2018-02-09T14:17:25.409Z,14.70
2018-02-09T14:19:52.004Z,14.43
2018-02-09T14:22:18.607Z,15.70
2018-02-09T14:24:45.236Z,14.63
2018-02-09T14:27:11.879Z,13.63
2018-02-09T14:29:38.487Z,14.30
2018-02-09T14:32:05.092Z,13.90
2018-02-09T14:34:31.696Z,12.97
2018-02-09T14:36:58.295Z,13.60
2018-02-09T14:39:24.904Z,13.53
2018-02-09T14:41:51.502Z,13.10
2018-02-09T14:44:18.831Z,12.30
2018-02-09T14:46:45.434Z,12.63
2018-02-09T14:49:12.031Z,13.80
2018-02-09T14:51:38.645Z,12.80
2018-02-09T14:54:05.243Z,13.50
2018-02-09T14:56:31.851Z,12.73
2018-02-09T14:58:58.523Z,13.20
2018-02-09T15:01:25.139Z,12.87
2018-02-09T15:03:51.735Z,12.70
2018-02-09T15:06:18.332Z,12.80
2018-02-09T15:08:44.946Z,12.43
2018-02-09T15:11:11.539Z,12.20
2018-02-09T15:13:38.147Z,11.20
2018-02-09T15:16:04.751Z,12.10
2018-02-09T15:18:31.371Z,11.73
2018-02-09T15:20:57.977Z,12.17
2018-02-09T15:23:24.576Z,12.20
2018-02-09T15:25:51.184Z,12.23
2018-02-09T15:28:17.800Z,12.50
2018-02-09T15:30:44.422Z,12.00
2018-02-09T15:33:11.048Z,12.80
2018-02-09T15:35:37.679Z,11.73
2018-02-09T15:38:04.283Z,12.40
2018-02-09T15:40:30.903Z,12.30
2018-02-09T15:42:57.540Z,12.47
2018-02-09T15:45:24.159Z,11.50
2018-02-09T15:47:50.768Z,11.10
2018-02-09T15:50:17.371Z,11.70
2018-02-09T15:52:43.996Z,11.67
2018-02-09T15:55:10.596Z,11.50
2018-02-09T15:57:37.234Z,11.10
2018-02-09T16:00:03.804Z,11.03
2018-02-09T16:02:30.423Z,11.23
2018-02-09T16:04:57.028Z,12.30
2018-02-09T16:07:23.639Z,10.53
2018-02-09T16:09:50.248Z,11.00
2018-02-09T16:12:16.852Z,11.30
2018-02-09T16:14:43.474Z,11.70
2018-02-09T16:17:10.071Z,10.80
2018-02-09T16:19:36.682Z,10.97
2018-02-09T16:22:03.287Z,11.60
2018-02-09T16:24:29.887Z,11.17
2018-02-09T16:26:56.495Z,10.90
2018-02-09T16:29:23.107Z,11.00
2018-02-09T16:31:49.703Z,10.63
2018-02-09T16:34:16.311Z,11.20
2018-02-09T16:36:42.933Z,11.13
2018-02-09T16:39:09.544Z,10.53
2018-02-09T16:41:36.151Z,10.80
2018-02-09T16:44:02.759Z,11.83
2018-02-09T16:46:29.351Z,11.40
2018-02-09T16:48:56.008Z,11.00
2018-02-09T16:51:22.560Z,11.23
2018-02-09T16:53:49.167Z,10.90
2018-02-09T16:56:15.803Z,12.00
2018-02-09T16:58:42.727Z,10.50
2018-02-09T17:01:09.644Z,12.63
2018-02-09T17:03:36.227Z,12.20
2018-02-09T17:06:02.831Z,12.33
2018-02-09T17:08:29.431Z,11.93
2018-02-09T17:10:56.035Z,13.47
2018-02-09T17:13:22.650Z,12.80
2018-02-09T17:15:49.282Z,12.10
2018-02-09T17:18:15.883Z,11.93
2018-02-09T17:20:42.483Z,12.90
2018-02-09T17:23:09.096Z,12.87
2018-02-09T17:25:35.700Z,12.00
2018-02-09T17:28:02.304Z,12.10
2018-02-09T17:30:28.920Z,13.03
2018-02-09T17:32:55.527Z,13.53
2018-02-09T17:35:22.136Z,13.03
2018-02-09T17:37:48.754Z,12.83
2018-02-09T17:40:15.356Z,13.93
2018-02-09T17:42:41.956Z,13.50
2018-02-09T17:45:08.562Z,12.93
2018-02-09T17:47:35.167Z,13.57
2018-02-09T17:50:01.775Z,14.70
2018-02-09T17:52:28.375Z,12.93
2018-02-09T17:54:54.986Z,13.50
2018-02-09T17:57:21.585Z,13.87
2018-02-09T17:59:48.200Z,14.10
2018-02-09T18:02:14.800Z,14.50
2018-02-09T18:04:41.404Z,13.73
2018-02-09T18:07:08.021Z,13.60
2018-02-09T18:09:34.657Z,13.80
2018-02-09T18:12:01.252Z,13.73
2018-02-09T18:14:27.911Z,12.00
2018-02-09T18:16:54.603Z,12.23
2018-02-09T18:19:21.278Z,11.80
2018-02-09T18:21:47.907Z,12.63
2018-02-09T18:24:14.516Z,12.03
2018-02-09T18:26:41.116Z,12.03
2018-02-09T18:29:07.729Z,11.50
2018-02-09T18:31:34.339Z,11.10
2018-02-09T18:34:00.943Z,10.73
2018-02-09T18:36:27.545Z,10.53
2018-02-09T18:38:55.148Z,11.80
2018-02-09T18:41:21.745Z,11.30
2018-02-09T18:43:48.349Z,12.50
2018-02-09T18:46:14.980Z,11.13
2018-02-09T18:48:41.571Z,10.47
2018-02-09T18:51:08.175Z,13.17
2018-02-09T18:53:34.776Z,12.53
2018-02-09T18:56:01.420Z,12.23
2018-02-09T18:58:28.011Z,12.40
2018-02-09T19:00:54.610Z,12.73
2018-02-09T19:03:22.136Z,11.23
2018-02-09T19:05:48.735Z,12.70
2018-02-09T19:08:15.339Z,12.93
2018-02-09T19:10:41.942Z,11.83
2018-02-09T19:13:08.569Z,12.90
2018-02-09T19:15:35.155Z,12.23
2018-02-09T19:18:01.760Z,13.40
2018-02-09T19:20:28.356Z,11.90
2018-02-09T19:22:54.963Z,16.50
2018-02-09T19:25:21.567Z,13.73
2018-02-09T19:27:48.167Z,14.10
2018-02-09T19:30:14.777Z,13.03
2018-02-09T19:32:41.379Z,15.80
2018-02-09T19:35:07.988Z,14.23
2018-02-09T19:37:34.586Z,14.17
2018-02-09T19:40:01.200Z,14.30
2018-02-09T19:42:27.799Z,20.50
2018-02-09T19:44:54.395Z,19.97
2018-02-09T19:47:21.003Z,13.60
2018-02-09T19:49:47.605Z,13.33
2018-02-09T19:52:14.222Z,12.90
2018-02-09T19:54:40.819Z,12.20
2018-02-09T19:57:07.425Z,13.40
2018-02-09T19:59:34.032Z,12.97
2018-02-09T20:02:00.645Z,13.77
2018-02-09T20:04:27.241Z,13.87
2018-02-09T20:06:53.855Z,14.00
2018-02-09T20:09:20.455Z,12.23
2018-02-09T20:11:47.052Z,15.50
2018-02-09T20:14:13.663Z,18.00
2018-02-09T20:16:40.276Z,15.10
2018-02-09T20:19:06.883Z,13.83
2018-02-09T20:21:33.479Z,15.77
2018-02-09T20:24:00.088Z,16.97
2018-02-09T20:26:26.699Z,14.77
2018-02-09T20:28:53.313Z,18.10
2018-02-09T20:31:20.832Z,13.20
2018-02-09T20:33:47.441Z,14.10
2018-02-09T20:36:14.040Z,14.50
2018-02-09T20:38:40.660Z,13.50
2018-02-09T20:41:07.269Z,13.43
2018-02-09T20:43:33.977Z,12.93
2018-02-09T20:46:00.576Z,13.37
2018-02-09T20:48:27.180Z,13.77
2018-02-09T20:50:53.783Z,12.70
2018-02-09T20:53:20.400Z,13.23
2018-02-09T20:55:47.044Z,14.60
2018-02-09T20:58:13.634Z,14.13
2018-02-09T21:00:40.247Z,13.37
2018-02-09T21:03:06.852Z,13.60
2018-02-09T21:05:33.466Z,13.63
2018-02-09T21:08:00.121Z,13.53
2018-02-09T21:10:26.737Z,13.40
2018-02-09T21:12:53.344Z,13.10
2018-02-09T21:15:19.936Z,13.70
2018-02-09T21:17:46.548Z,15.07
2018-02-09T21:20:13.139Z,14.40
2018-02-09T21:22:39.748Z,17.13
2018-02-09T21:25:06.343Z,14.80
2018-02-09T21:27:32.970Z,14.63
2018-02-09T21:29:59.661Z,15.07
2018-02-09T21:32:26.256Z,14.27
2018-02-09T21:34:52.856Z,15.40
2018-02-09T21:37:19.480Z,16.43
2018-02-09T21:39:46.083Z,15.77
2018-02-09T21:42:12.683Z,16.10
2018-02-09T21:44:39.292Z,15.53
2018-02-09T21:47:05.892Z,16.10
2018-02-09T21:49:32.518Z,16.77
2018-02-09T21:51:59.120Z,15.40
2018-02-09T21:54:25.723Z,16.53
2018-02-09T21:56:52.327Z,16.70
2018-02-09T21:59:18.935Z,15.23
2018-02-09T22:01:45.553Z,15.70
2018-02-09T22:04:12.147Z,18.10
2018-02-09T22:06:38.778Z,19.90
2018-02-09T22:09:05.389Z,16.40
2018-02-09T22:11:32.011Z,17.93
2018-02-09T22:13:58.607Z,18.50
2018-02-09T22:16:25.215Z,16.03
2018-02-09T22:18:51.815Z,16.90
2018-02-09T22:21:18.428Z,15.50
2018-02-09T22:23:45.039Z,14.77
2018-02-09T22:26:11.635Z,15.60
2018-02-09T22:28:38.239Z,15.67
2018-02-09T22:31:04.839Z,14.70
2018-02-09T22:33:31.447Z,14.90
2018-02-09T22:35:58.060Z,15.97
2018-02-09T22:38:24.662Z,15.27
2018-02-09T22:40:51.260Z,15.33
2018-02-09T22:43:17.889Z,15.13
2018-02-09T22:45:44.499Z,15.10
2018-02-09T22:48:11.095Z,15.53
2018-02-09T22:50:37.705Z,14.73
2018-02-09T22:53:04.319Z,16.00
2018-02-09T22:55:30.924Z,14.80
2018-02-09T22:57:57.541Z,18.10
2018-02-09T23:00:24.144Z,14.43
2018-02-09T23:02:50.741Z,15.73
2018-02-09T23:05:17.379Z,14.90
2018-02-09T23:07:43.975Z,17.23
2018-02-09T23:10:10.579Z,16.30
2018-02-09T23:12:37.211Z,16.90
2018-02-09T23:15:03.812Z,14.33
2018-02-09T23:17:30.415Z,13.80
2018-02-09T23:19:57.011Z,14.53
2018-02-09T23:22:23.620Z,14.63
2018-02-09T23:24:50.247Z,13.10
2018-02-09T23:27:16.843Z,13.50
2018-02-09T23:29:43.447Z,13.93
2018-02-09T23:32:10.047Z,13.80
2018-02-09T23:34:36.655Z,15.40
2018-02-09T23:37:03.256Z,14.50
2018-02-09T23:39:29.873Z,13.87
2018-02-09T23:41:56.479Z,13.70
2018-02-09T23:44:23.092Z,14.20
2018-02-09T23:46:49.700Z,15.47
2018-02-09T23:49:16.300Z,13.53
2018-02-09T23:51:42.912Z,14.13
2018-02-09T23:54:09.515Z,14.20
2018-02-09T23:56:36.111Z,13.50
2018-02-09T23:59:02.715Z,15.20
